EDGS

Siegerland Airport

Germany
METAR EDGS 181550Z 35007KT 8000 BKN017 13/10 Q1023
Observed Flight Rules
Oct-18 @ 15:50 UTC (32 minutes ago) Marginal Visual Flight Rules
Wind Visibility Clouds
350° at 7 knots 7,998 meters
  • Broken at 1,700' AGL
Temperatures Readings
Current 13°C / 55°F
Dewpoint 10°C / 50°F
Humidity 82%
Altimeter 30.21" Hg
Pressure 1023 hPa
Elevation 602
METAR EDGS 181550Z 35007KT 8000 BKN017 13/10 Q1023
Observed Flight Rules
Oct-18 @ 15:50 UTC
(32 minutes ago)
MVFR
Wind Visibility
350° at 7 knots 7,998 meters
Clouds
  • Broken at 1,700' AGL
Temperature Dewpoint
13°C / 55°F 10°C / 50°F
Humidity Altimeter Pressure
82% 30.21" Hg 1023 hPa